createdAt,value
2023-05-19T00:00:31.002Z,4.68
2023-05-19T00:03:00.999Z,5.30
2023-05-19T00:05:31.129Z,5.15
2023-05-19T00:08:24.697Z,4.15
2023-05-19T00:10:52.373Z,3.78
2023-05-19T00:13:19.921Z,3.97
2023-05-19T00:15:48.527Z,4.75
2023-05-19T00:18:16.658Z,4.57
2023-05-19T00:20:44.035Z,5.10
2023-05-19T00:23:11.341Z,4.32
2023-05-19T00:25:38.498Z,4.10
2023-05-19T00:28:05.594Z,3.95
2023-05-19T00:30:33.158Z,3.92
2023-05-19T00:33:00.759Z,4.18
2023-05-19T00:35:28.069Z,3.72
2023-05-19T00:38:26.868Z,3.70
2023-05-19T00:41:26.585Z,4.00
2023-05-19T00:44:44.732Z,3.75
2023-05-19T00:51:25.256Z,4.05
2023-05-19T01:03:13.693Z,3.78
2023-05-19T01:05:42.407Z,3.72
2023-05-19T01:08:09.783Z,3.63
2023-05-19T01:10:37.384Z,4.00
2023-05-19T01:13:07.010Z,4.35
2023-05-19T01:16:08.896Z,4.30
2023-05-19T01:18:49.657Z,3.97
2023-05-19T01:21:50.281Z,3.75
2023-05-19T01:24:47.160Z,4.18
2023-05-19T01:27:54.180Z,3.78
2023-05-19T01:33:54.431Z,5.38
2023-05-19T01:49:50.673Z,3.80
2023-05-19T01:50:25.166Z,4.20
2023-05-19T01:52:52.638Z,4.75
2023-05-19T01:55:21.364Z,3.92
2023-05-19T01:58:40.076Z,3.90
2023-05-19T02:02:01.902Z,5.03
2023-05-19T02:04:45.111Z,4.25
2023-05-19T02:07:36.772Z,3.72
2023-05-19T02:10:16.019Z,4.00
2023-05-19T02:12:46.137Z,4.15
2023-05-19T02:15:28.779Z,3.85
2023-05-19T02:18:00.298Z,3.85
2023-05-19T02:20:28.185Z,3.92
2023-05-19T02:22:55.364Z,4.05
2023-05-19T02:25:23.461Z,4.25
2023-05-19T02:28:06.536Z,4.00
2023-05-19T02:34:59.561Z,4.00
2023-05-19T02:39:48.539Z,4.70
2023-05-19T02:46:12.310Z,4.03
2023-05-19T02:50:12.205Z,4.00
2023-05-19T02:53:19.188Z,4.03
2023-05-19T02:56:30.382Z,4.15
2023-05-19T03:02:07.135Z,3.80
2023-05-19T03:04:41.540Z,3.75
2023-05-19T03:07:10.322Z,4.20
2023-05-19T03:09:38.156Z,4.03
2023-05-19T03:12:07.389Z,3.95
2023-05-19T03:14:38.623Z,4.00
2023-05-19T03:17:08.144Z,3.67
2023-05-19T03:19:35.767Z,3.83
2023-05-19T03:22:03.093Z,3.70
2023-05-19T03:24:30.668Z,4.18
2023-05-19T03:27:28.211Z,4.18
2023-05-19T03:29:55.706Z,3.88
2023-05-19T03:35:22.933Z,4.28
2023-05-19T03:37:59.422Z,4.53
2023-05-19T03:40:30.440Z,4.18
2023-05-19T03:48:03.025Z,3.55
2023-05-19T03:51:11.908Z,3.65
2023-05-19T03:53:59.098Z,4.38
2023-05-19T04:00:04.290Z,3.63
2023-05-19T04:03:37.068Z,3.83
2023-05-19T04:07:21.026Z,4.05
2023-05-19T04:10:07.758Z,3.70
2023-05-19T04:12:34.977Z,3.72
2023-05-19T04:15:02.156Z,4.55
2023-05-19T04:17:29.638Z,3.80
2023-05-19T04:19:56.777Z,4.30
2023-05-19T04:22:23.954Z,4.00
2023-05-19T04:29:52.113Z,4.00
2023-05-19T04:33:22.691Z,4.07
2023-05-19T04:38:26.976Z,3.33
2023-05-19T04:41:28.510Z,4.05
2023-05-19T04:52:24.467Z,4.35
2023-05-19T04:55:33.030Z,4.10
2023-05-19T04:58:20.677Z,3.90
2023-05-19T05:00:56.533Z,3.92
2023-05-19T05:03:47.979Z,3.95
2023-05-19T05:06:23.401Z,3.78
2023-05-19T05:08:53.962Z,4.00
2023-05-19T05:11:22.206Z,3.85
2023-05-19T05:13:50.028Z,3.92
2023-05-19T05:16:17.569Z,3.70
2023-05-19T05:44:51.150Z,3.58
2023-05-19T05:48:19.383Z,3.78
2023-05-19T05:56:26.635Z,4.15
2023-05-19T06:08:10.252Z,3.72
2023-05-19T06:10:47.373Z,3.90
2023-05-19T06:13:26.826Z,3.53
2023-05-19T06:16:13.932Z,3.63
2023-05-19T06:18:46.484Z,4.10
2023-05-19T06:21:16.495Z,3.70
2023-05-19T06:23:46.647Z,3.83
2023-05-19T06:26:24.557Z,3.35
2023-05-19T06:28:55.404Z,3.58
2023-05-19T06:31:29.167Z,3.25
2023-05-19T06:33:59.359Z,3.40
2023-05-19T06:36:26.498Z,3.55
2023-05-19T06:38:56.582Z,3.65
2023-05-19T06:41:24.311Z,3.83
2023-05-19T06:43:52.243Z,4.47
2023-05-19T06:46:22.513Z,3.40
2023-05-19T06:48:49.973Z,4.05
2023-05-19T06:51:22.330Z,3.88
2023-05-19T06:53:54.091Z,3.13
2023-05-19T06:56:23.078Z,3.50
2023-05-19T06:58:51.164Z,3.58
2023-05-19T07:01:20.165Z,3.63
2023-05-19T07:03:53.882Z,3.72
2023-05-19T07:06:22.020Z,3.97
2023-05-19T07:08:50.219Z,4.20
2023-05-19T07:11:18.547Z,3.97
2023-05-19T07:17:32.194Z,3.75
2023-05-19T07:19:59.387Z,4.07
2023-05-19T07:22:27.703Z,3.88
2023-05-19T07:24:57.351Z,3.70
2023-05-19T07:27:29.915Z,4.35
2023-05-19T07:30:01.268Z,3.35
2023-05-19T07:43:46.832Z,3.38
2023-05-19T07:48:44.030Z,3.20
2023-05-19T07:54:09.996Z,4.22
2023-05-19T07:56:37.164Z,3.22
2023-05-19T07:59:30.024Z,3.28
2023-05-19T08:01:57.244Z,3.20
2023-05-19T08:04:24.765Z,3.28
2023-05-19T08:06:53.036Z,3.00
2023-05-19T08:09:20.180Z,3.00
2023-05-19T08:11:55.665Z,3.20
2023-05-19T08:14:23.022Z,2.78
2023-05-19T08:16:50.437Z,3.00
2023-05-19T08:19:17.648Z,2.90
2023-05-19T08:21:45.629Z,2.97
2023-05-19T08:27:56.395Z,3.17
2023-05-19T08:36:01.346Z,3.40
2023-05-19T08:39:39.868Z,3.72
2023-05-19T08:42:09.932Z,3.40
2023-05-19T08:44:40.082Z,3.40
2023-05-19T08:47:13.297Z,3.30
2023-05-19T08:49:47.245Z,3.33
2023-05-19T08:53:28.921Z,3.20
2023-05-19T08:56:16.640Z,3.17
2023-05-19T08:58:46.240Z,2.67
2023-05-19T09:01:18.204Z,3.20
2023-05-19T09:03:50.213Z,3.28
2023-05-19T09:06:18.128Z,2.75
2023-05-19T09:08:47.056Z,3.55
2023-05-19T09:11:14.487Z,3.33
2023-05-19T09:13:42.143Z,3.88
2023-05-19T09:16:09.582Z,3.40
2023-05-19T09:18:41.175Z,3.03
2023-05-19T09:21:11.180Z,3.33
2023-05-19T09:23:38.638Z,3.15
2023-05-19T09:26:08.893Z,2.67
2023-05-19T09:28:37.834Z,3.38
2023-05-19T09:31:42.505Z,3.28
2023-05-19T09:34:39.778Z,2.65
2023-05-19T09:37:10.020Z,2.60
2023-05-19T09:39:38.996Z,2.42
2023-05-19T09:42:13.935Z,2.75
2023-05-19T09:44:42.353Z,2.10
2023-05-19T09:47:10.442Z,2.63
2023-05-19T09:49:38.693Z,2.58
2023-05-19T09:52:05.938Z,3.03
2023-05-19T09:54:34.685Z,2.92
2023-05-19T09:57:06.632Z,2.90
2023-05-19T09:59:35.857Z,2.78
2023-05-19T10:02:03.438Z,2.72
2023-05-19T10:04:31.914Z,3.25
2023-05-19T10:07:00.862Z,3.03
2023-05-19T10:09:30.013Z,2.97
2023-05-19T10:11:59.139Z,2.65
2023-05-19T10:14:29.264Z,3.45
2023-05-19T10:16:58.909Z,3.13
2023-05-19T10:19:29.238Z,3.28
2023-05-19T10:21:57.044Z,3.42
2023-05-19T10:24:24.351Z,2.95
2023-05-19T10:27:05.803Z,3.08
2023-05-19T10:30:15.755Z,3.45
2023-05-19T10:32:48.610Z,2.78
2023-05-19T10:35:54.570Z,3.13
2023-05-19T10:38:48.682Z,2.65
2023-05-19T10:41:54.075Z,2.80
2023-05-19T10:44:41.010Z,3.15
2023-05-19T10:47:08.749Z,3.13
2023-05-19T10:49:36.767Z,3.22
2023-05-19T10:52:19.274Z,2.80
2023-05-19T10:54:48.017Z,2.92
2023-05-19T11:01:57.158Z,2.88
2023-05-19T11:10:35.629Z,2.75
2023-05-19T11:13:06.493Z,2.30
2023-05-19T11:15:39.446Z,2.53
2023-05-19T11:18:12.814Z,3.03
2023-05-19T11:20:40.039Z,2.40
2023-05-19T11:23:11.128Z,2.42
2023-05-19T11:25:52.352Z,2.80
2023-05-19T11:28:29.397Z,2.25
2023-05-19T11:31:35.223Z,2.65
2023-05-19T11:34:12.669Z,2.47
2023-05-19T11:37:07.492Z,2.47
2023-05-19T11:39:35.716Z,2.33
2023-05-19T11:42:15.964Z,3.33
2023-05-19T11:44:46.730Z,2.35
2023-05-19T11:47:17.367Z,2.45
2023-05-19T11:49:56.695Z,2.25
2023-05-19T11:52:29.971Z,2.55
2023-05-19T11:55:01.599Z,2.30
2023-05-19T11:57:28.898Z,2.20
2023-05-19T12:00:26.149Z,2.60
2023-05-19T12:03:02.062Z,1.88
2023-05-19T12:05:42.814Z,2.40
2023-05-19T12:27:13.707Z,2.60
2023-05-19T12:29:41.344Z,2.50
2023-05-19T12:32:09.884Z,2.55
2023-05-19T12:34:38.705Z,2.05
2023-05-19T12:37:06.414Z,2.78
2023-05-19T12:39:34.012Z,2.92
2023-05-19T12:42:08.547Z,2.50
2023-05-19T12:44:43.834Z,2.00
2023-05-19T12:47:10.958Z,2.88
2023-05-19T12:50:01.481Z,2.47
2023-05-19T12:52:31.174Z,2.50
2023-05-19T12:55:07.444Z,3.13
2023-05-19T12:57:45.165Z,2.83
2023-05-19T13:00:22.580Z,3.15
2023-05-19T13:04:25.449Z,2.70
2023-05-19T13:06:53.852Z,2.85
2023-05-19T13:09:21.196Z,2.90
2023-05-19T13:11:51.282Z,3.05
2023-05-19T13:14:37.716Z,3.00
2023-05-19T13:17:23.650Z,3.00
2023-05-19T13:19:50.912Z,2.78
2023-05-19T13:22:18.126Z,2.72
2023-05-19T13:24:45.178Z,2.88
2023-05-19T13:27:12.185Z,2.90
2023-05-19T13:29:39.363Z,3.80
2023-05-19T13:32:13.021Z,3.28
2023-05-19T13:35:17.261Z,3.45
2023-05-19T13:37:44.645Z,3.92
2023-05-19T13:40:13.283Z,3.47
2023-05-19T13:42:41.642Z,3.17
2023-05-19T13:45:09.693Z,3.40
2023-05-19T13:47:38.341Z,3.00
2023-05-19T13:50:06.702Z,3.50
2023-05-19T13:52:33.798Z,3.80
2023-05-19T13:55:01.202Z,3.58
2023-05-19T13:57:30.865Z,3.97
2023-05-19T14:00:03.417Z,4.00
2023-05-19T14:05:13.056Z,3.90
2023-05-19T14:07:44.471Z,4.13
2023-05-19T14:10:15.862Z,3.65
2023-05-19T14:13:04.924Z,3.20
2023-05-19T14:15:32.594Z,3.63
2023-05-19T14:18:00.843Z,3.70
2023-05-19T14:20:29.398Z,3.70
2023-05-19T14:23:01.263Z,3.90
2023-05-19T14:25:34.082Z,3.70
2023-05-19T14:28:01.546Z,4.10
2023-05-19T14:30:28.971Z,3.70
2023-05-19T14:32:56.347Z,2.78
2023-05-19T14:35:27.355Z,4.72
2023-05-19T14:37:54.420Z,3.90
2023-05-19T14:40:21.538Z,3.75
2023-05-19T14:42:49.674Z,3.60
2023-05-19T14:45:17.265Z,4.05
2023-05-19T14:47:44.507Z,3.97
2023-05-19T14:50:14.303Z,4.63
2023-05-19T14:52:41.547Z,3.78
2023-05-19T14:55:10.669Z,4.10
2023-05-19T14:57:37.818Z,4.70
2023-05-19T15:00:06.633Z,4.47
2023-05-19T15:02:33.806Z,4.13
2023-05-19T15:05:01.083Z,3.97
2023-05-19T15:07:28.395Z,4.38
2023-05-19T15:09:55.869Z,3.72
2023-05-19T15:12:22.969Z,4.10
2023-05-19T15:14:50.850Z,4.30
2023-05-19T15:17:19.719Z,4.07
2023-05-19T15:19:46.895Z,4.78
2023-05-19T15:22:17.333Z,4.45
2023-05-19T15:24:44.410Z,4.10
2023-05-19T15:27:12.052Z,4.40
2023-05-19T15:29:39.223Z,4.40
2023-05-19T15:32:07.167Z,4.57
2023-05-19T15:34:34.452Z,4.68
2023-05-19T15:37:01.962Z,4.40
2023-05-19T15:39:31.373Z,4.85
2023-05-19T15:41:58.611Z,4.70
2023-05-19T15:44:28.929Z,4.05
2023-05-19T15:46:56.453Z,4.20
2023-05-19T15:49:25.153Z,4.38
2023-05-19T15:51:52.323Z,4.53
2023-05-19T15:54:19.461Z,4.70
2023-05-19T15:56:50.531Z,4.70
2023-05-19T15:59:18.105Z,4.53
2023-05-19T16:01:45.368Z,4.93
2023-05-19T16:04:13.182Z,4.43
2023-05-19T16:06:40.698Z,5.15
2023-05-19T16:09:08.144Z,5.18
2023-05-19T16:12:01.604Z,5.22
2023-05-19T16:14:33.276Z,5.70
2023-05-19T16:17:03.231Z,5.30
2023-05-19T16:19:30.979Z,4.68
2023-05-19T16:22:02.285Z,5.35
2023-05-19T16:24:29.679Z,4.97
2023-05-19T16:26:56.941Z,5.40
2023-05-19T16:29:24.142Z,4.70
2023-05-19T16:31:51.343Z,4.82
2023-05-19T16:34:18.662Z,4.10
2023-05-19T16:36:45.740Z,4.30
2023-05-19T16:39:13.399Z,4.20
2023-05-19T16:41:40.534Z,3.50
2023-05-19T16:44:07.625Z,4.05
2023-05-19T16:46:34.727Z,4.10
2023-05-19T16:49:02.017Z,3.90
2023-05-19T16:51:29.246Z,4.72
2023-05-19T16:53:56.482Z,4.13
2023-05-19T16:56:23.569Z,4.75
2023-05-19T16:58:50.984Z,4.30
2023-05-19T17:01:21.683Z,4.22
2023-05-19T17:03:49.377Z,4.63
2023-05-19T17:06:16.444Z,3.80
2023-05-19T17:08:46.680Z,3.63
2023-05-19T17:11:13.743Z,3.92
2023-05-19T17:13:42.489Z,4.65
2023-05-19T17:16:09.763Z,4.07
2023-05-19T17:18:37.360Z,4.10
2023-05-19T17:21:05.477Z,4.57
2023-05-19T17:23:32.948Z,4.47
2023-05-19T17:26:00.124Z,4.45
2023-05-19T17:28:35.256Z,4.45
2023-05-19T17:31:13.352Z,3.95
2023-05-19T17:33:41.327Z,4.05
2023-05-19T17:36:09.075Z,4.25
2023-05-19T17:38:40.295Z,4.10
2023-05-19T17:41:10.018Z,4.30
2023-05-19T17:43:38.223Z,4.68
2023-05-19T17:46:06.142Z,3.85
2023-05-19T17:48:33.865Z,4.38
2023-05-19T17:51:01.508Z,4.18
2023-05-19T17:53:29.689Z,3.67
2023-05-19T17:56:03.503Z,4.22
2023-05-19T17:58:31.027Z,4.10
2023-05-19T18:00:58.562Z,4.53
2023-05-19T18:03:26.276Z,5.15
2023-05-19T18:05:53.890Z,5.13
2023-05-19T18:08:21.837Z,4.60
2023-05-19T18:10:51.715Z,5.05
2023-05-19T18:13:23.592Z,4.95
2023-05-19T18:15:52.710Z,4.75
2023-05-19T18:18:20.002Z,4.80
2023-05-19T18:20:48.198Z,4.35
2023-05-19T18:23:20.560Z,4.75
2023-05-19T18:25:54.743Z,5.03
2023-05-19T18:28:24.025Z,4.82
2023-05-19T18:31:04.759Z,4.95
2023-05-19T18:33:32.464Z,5.22
2023-05-19T18:35:59.682Z,5.55
2023-05-19T18:38:26.933Z,6.10
2023-05-19T18:40:54.197Z,5.43
2023-05-19T18:43:21.235Z,5.10
2023-05-19T18:45:48.436Z,4.97
2023-05-19T18:48:15.852Z,5.47
2023-05-19T18:50:44.588Z,5.78
2023-05-19T18:53:12.109Z,5.05
2023-05-19T18:55:39.187Z,6.45
2023-05-19T18:58:06.471Z,5.97
2023-05-19T19:00:36.160Z,5.93
2023-05-19T19:03:04.456Z,5.65
2023-05-19T19:05:31.634Z,6.20
2023-05-19T19:07:59.106Z,6.68
2023-05-19T19:10:29.795Z,5.80
2023-05-19T19:12:59.741Z,5.40
2023-05-19T19:15:28.322Z,6.68
2023-05-19T19:17:55.593Z,6.70
2023-05-19T19:20:22.840Z,6.63
2023-05-19T19:22:50.580Z,6.43
2023-05-19T19:25:18.162Z,6.55
2023-05-19T19:27:49.649Z,7.78
2023-05-19T19:30:16.804Z,7.43
2023-05-19T19:32:44.405Z,6.85
2023-05-19T19:35:11.637Z,8.05
2023-05-19T19:37:38.691Z,7.47
2023-05-19T19:40:07.113Z,8.02
2023-05-19T19:42:34.324Z,8.15
2023-05-19T19:45:02.123Z,8.82
2023-05-19T19:47:29.486Z,8.45
2023-05-19T19:49:56.744Z,7.97
2023-05-19T19:52:23.918Z,9.10
2023-05-19T19:54:51.180Z,8.88
2023-05-19T19:57:18.407Z,8.88
2023-05-19T19:59:45.758Z,9.93
2023-05-19T20:02:12.882Z,9.40
2023-05-19T20:04:40.132Z,8.48
2023-05-19T20:07:07.280Z,10.40
2023-05-19T20:09:34.568Z,9.70
2023-05-19T20:12:01.681Z,8.60
2023-05-19T20:14:31.805Z,9.25
2023-05-19T20:16:59.045Z,9.35
2023-05-19T20:19:28.525Z,10.23
2023-05-19T20:21:55.884Z,9.82
2023-05-19T20:24:22.949Z,10.40
2023-05-19T20:26:56.809Z,9.98
2023-05-19T20:29:32.894Z,9.65
2023-05-19T20:32:01.698Z,10.32
2023-05-19T20:34:36.749Z,10.73
2023-05-19T20:37:04.085Z,11.00
2023-05-19T20:39:31.274Z,10.13
2023-05-19T20:41:58.321Z,10.32
2023-05-19T20:44:25.379Z,10.57
2023-05-19T20:46:54.557Z,11.20
2023-05-19T20:49:21.777Z,11.82
2023-05-19T20:51:49.179Z,11.02
2023-05-19T20:54:16.799Z,11.45
2023-05-19T20:56:43.878Z,11.95
2023-05-19T20:59:11.010Z,10.85
2023-05-19T21:01:38.748Z,10.77
2023-05-19T21:04:07.679Z,10.50
2023-05-19T21:06:35.204Z,11.52
2023-05-19T21:09:05.142Z,12.00
2023-05-19T21:11:34.008Z,10.18
2023-05-19T21:14:04.289Z,11.63
2023-05-19T21:16:32.208Z,11.32
2023-05-19T21:19:00.175Z,11.20
2023-05-19T21:21:27.380Z,11.05
2023-05-19T21:23:54.406Z,11.70
2023-05-19T21:26:22.162Z,10.82
2023-05-19T21:28:55.717Z,11.68
2023-05-19T21:31:23.087Z,12.13
2023-05-19T21:33:50.297Z,11.80
2023-05-19T21:36:18.331Z,11.68
2023-05-19T21:38:45.391Z,11.63
2023-05-19T21:41:12.478Z,10.57
2023-05-19T21:43:41.224Z,11.77
2023-05-19T21:46:09.978Z,11.95
2023-05-19T21:48:37.531Z,12.65
2023-05-19T21:51:05.328Z,11.02
2023-05-19T21:53:32.910Z,11.25
2023-05-19T21:56:00.648Z,10.93
2023-05-19T21:58:27.868Z,11.55
2023-05-19T22:00:56.061Z,11.13
2023-05-19T22:03:23.574Z,10.35
2023-05-19T22:05:52.747Z,11.20
2023-05-19T22:08:22.230Z,12.45
2023-05-19T22:10:51.313Z,12.18
2023-05-19T22:13:20.288Z,11.75
2023-05-19T22:15:49.628Z,11.48
2023-05-19T22:18:17.072Z,11.23
2023-05-19T22:21:09.072Z,12.80
2023-05-19T22:23:36.353Z,13.60
2023-05-19T22:26:03.413Z,11.05
2023-05-19T22:28:31.709Z,11.93
2023-05-19T22:30:58.832Z,11.80
2023-05-19T22:33:25.889Z,12.18
2023-05-19T22:35:52.981Z,12.20
2023-05-19T22:38:20.075Z,11.98
2023-05-19T22:40:47.523Z,12.57
2023-05-19T22:43:14.598Z,12.63
2023-05-19T22:45:41.821Z,12.32
2023-05-19T22:48:08.976Z,11.15
2023-05-19T22:50:36.051Z,12.80
2023-05-19T22:53:03.127Z,12.38
2023-05-19T22:55:30.113Z,12.27
2023-05-19T22:57:57.166Z,12.45
2023-05-19T23:00:24.330Z,13.02
2023-05-19T23:02:51.376Z,12.35
2023-05-19T23:05:21.089Z,12.05
2023-05-19T23:07:48.154Z,12.07
2023-05-19T23:10:15.505Z,12.48
2023-05-19T23:12:42.713Z,12.48
2023-05-19T23:15:11.429Z,13.32
2023-05-19T23:17:38.853Z,12.98
2023-05-19T23:20:09.178Z,13.90
2023-05-19T23:22:36.314Z,13.18
2023-05-19T23:25:07.527Z,14.10
2023-05-19T23:27:36.416Z,14.60
2023-05-19T23:30:10.881Z,12.90
2023-05-19T23:32:38.361Z,14.00
2023-05-19T23:35:16.038Z,14.18
2023-05-19T23:37:43.259Z,14.52
2023-05-19T23:40:11.946Z,13.80
2023-05-19T23:42:39.295Z,17.08
2023-05-19T23:45:11.558Z,15.90
2023-05-19T23:47:38.944Z,14.35
2023-05-19T23:50:06.718Z,16.00
2023-05-19T23:52:34.089Z,16.05
2023-05-19T23:55:01.558Z,15.60
2023-05-19T23:57:28.736Z,15.82
2023-05-19T23:59:55.906Z,13.90
